Time;durP1;ratioP1;P1;durP2;ratioP2;P2;SDS_P1;SDS_P2;PMS_P1;PMS_P2;Temp;Humidity;BMP_temperature;BMP_pressure;BME280_temperature;BME280_humidity;BME280_pressure;Samples;Min_cycle;Max_cycle;Signal;HPM_P1;HPM_P2
2023/04/02 00:03:07;;;;;;;17.70;12.73;;;;;;;10.31;100.00;99671.16;8395504;28;20032;-59
2023/04/02 00:07:30;;;;;;;17.98;12.75;;;;;;;10.33;100.00;99675.41;8391948;28;20047;-59
2023/04/02 00:11:34;;;;;;;20.95;13.50;;;;;;;10.33;100.00;99680.78;8359062;28;20064;-59
2023/04/02 00:15:36;;;;;;;;;;;;;;;10.27;100.00;99697.63;8361790;28;20049;-54
2023/04/02 00:19:44;;;;;;;21.25;14.10;;;;;;;10.08;100.00;99697.00;8385573;28;19962;-55
2023/04/02 00:23:45;;;;;;;17.95;12.77;;;;;;;10.08;100.00;99700.53;8364756;28;20378;-54
2023/04/02 00:27:46;;;;;;;23.58;15.23;;;;;;;10.08;100.00;99703.25;8341199;28;20045;-55
2023/04/02 00:31:50;;;;;;;20.15;13.93;;;;;;;10.01;100.00;99710.25;8359295;28;20503;-55
2023/04/02 00:35:53;;;;;;;18.42;13.25;;;;;;;10.02;100.00;99717.34;8382657;28;20046;-59
2023/04/02 00:40:00;;;;;;;18.75;12.77;;;;;;;9.99;100.00;99725.75;8393300;28;20036;-59
2023/04/02 00:44:02;;;;;;;17.35;11.82;;;;;;;9.99;100.00;99731.16;8392570;28;20063;-60
2023/04/02 00:48:34;;;;;;;14.13;10.25;;;;;;;9.95;100.00;99729.78;8383265;28;20036;-60
2023/04/02 00:52:35;;;;;;;12.65;8.90;;;;;;;9.97;100.00;99743.94;8376932;28;20103;-59
2023/04/02 00:56:41;;;;;;;10.20;7.28;;;;;;;10.00;100.00;99747.19;8326766;28;20045;-60
2023/04/02 01:00:49;;;;;;;9.43;7.03;;;;;;;9.95;100.00;99754.06;8325593;28;20047;-60
2023/04/02 01:05:13;;;;;;;11.20;8.18;;;;;;;9.94;100.00;99763.16;8331791;28;20037;-59
2023/04/02 01:09:27;;;;;;;14.98;9.95;;;;;;;9.89;100.00;99779.00;8325461;28;20033;-55
2023/04/02 01:13:59;;;;;;;14.93;10.75;;;;;;;9.90;100.00;99780.69;8329415;28;20050;-55
2023/04/02 01:18:17;;;;;;;14.95;9.85;;;;;;;9.81;100.00;99789.69;8336849;28;20045;-54
2023/04/02 01:27:23;;;;;;;6.90;5.95;;;;;;;9.80;100.00;99806.91;8354672;27;20404;-53
2023/04/02 01:31:26;;;;;;;6.32;5.72;;;;;;;9.74;100.00;99808.38;8351859;28;20415;-53
2023/04/02 01:35:32;;;;;;;4.80;4.40;;;;;;;9.64;100.00;99817.53;8352012;28;20278;-53
2023/04/02 01:44:22;;;;;;;4.57;3.75;;;;;;;9.64;100.00;99841.81;8404900;27;20472;-55
2023/04/02 01:48:28;;;;;;;3.70;3.40;;;;;;;9.56;100.00;99844.41;8402561;27;20424;-54
2023/04/02 01:52:40;;;;;;;4.38;3.47;;;;;;;9.55;100.00;99856.22;8401757;27;20071;-51
2023/04/02 01:56:43;;;;;;;4.45;3.80;;;;;;;9.59;100.00;99863.00;8380367;28;20173;-56
2023/04/02 02:00:49;;;;;;;4.05;3.28;;;;;;;9.59;100.00;99873.81;8378228;28;20047;-55
2023/04/02 02:04:50;;;;;;;4.55;3.50;;;;;;;9.61;100.00;99877.22;8368242;28;20055;-55
2023/04/02 02:09:00;;;;;;;4.40;4.00;;;;;;;9.57;100.00;99887.44;8368381;28;20083;-54
2023/04/02 02:13:02;;;;;;;4.55;3.42;;;;;;;9.62;100.00;99895.09;8366822;28;20039;-55
2023/04/02 02:17:14;;;;;;;4.03;3.63;;;;;;;9.57;100.00;99906.34;8369844;28;20035;-55
2023/04/02 02:21:38;;;;;;;5.70;5.05;;;;;;;9.57;100.00;99898.22;8406987;27;20419;-55
2023/04/02 02:25:40;;;;;;;6.75;5.00;;;;;;;9.52;100.00;99922.09;8380575;28;20041;-55
2023/04/02 02:29:44;;;;;;;7.10;5.55;;;;;;;9.53;100.00;99931.06;8398453;28;20402;-55
2023/04/02 02:33:50;;;;;;;5.75;5.22;;;;;;;9.50;100.00;99934.06;8416870;28;20040;-55
2023/04/02 02:38:01;;;;;;;4.75;4.28;;;;;;;9.45;100.00;99941.72;8404891;27;20041;-55
2023/04/02 02:42:27;;;;;;;4.03;3.55;;;;;;;9.39;100.00;99955.81;8400468;27;20037;-55
2023/04/02 02:46:30;;;;;;;5.30;3.15;;;;;;;9.40;100.00;99960.22;8389931;27;20074;-55
2023/04/02 02:50:33;;;;;;;3.08;2.78;;;;;;;9.37;100.00;99972.13;8390078;27;20033;-60
2023/04/02 02:54:43;;;;;;;4.97;2.80;;;;;;;9.38;100.00;99973.00;8377036;28;20040;-60
2023/04/02 02:58:44;;;;;;;3.80;3.30;;;;;;;9.41;100.00;99988.88;8367833;28;20509;-59
2023/04/02 03:03:10;;;;;;;2.92;2.63;;;;;;;9.41;100.00;99995.16;8367269;28;20127;-59
2023/04/02 03:07:12;;;;;;;3.17;2.80;;;;;;;9.42;100.00;100001.38;8376486;28;20041;-59
2023/04/02 03:11:23;;;;;;;3.88;3.47;;;;;;;9.31;100.00;100009.66;8365932;28;20041;-59
2023/04/02 03:15:34;;;;;;;3.88;3.45;;;;;;;9.35;100.00;100021.84;8360315;28;20344;-59
2023/04/02 03:20:00;;;;;;;5.25;4.30;;;;;;;9.32;100.00;100027.53;8363045;28;20491;-59
2023/04/02 03:24:12;;;;;;;4.22;3.78;;;;;;;9.27;100.00;100041.44;8361271;28;20037;-59
2023/04/02 03:28:19;;;;;;;5.43;3.47;;;;;;;9.26;100.00;100057.78;8377000;28;20033;-60
2023/04/02 03:32:28;;;;;;;5.60;2.90;;;;;;;9.22;100.00;100059.06;8369026;28;20120;-59
2023/04/02 03:36:34;;;;;;;10.07;6.65;;;;;;;9.14;100.00;100070.56;8343506;28;20120;-59
2023/04/02 03:40:41;;;;;;;10.52;7.35;;;;;;;9.18;100.00;100079.22;8341575;28;20069;-59
2023/04/02 03:45:06;;;;;;;13.70;8.10;;;;;;;9.00;100.00;100092.53;8342571;28;20087;-59
2023/04/02 03:49:12;;;;;;;11.27;8.38;;;;;;;8.96;100.00;100095.66;8362183;28;20049;-59
2023/04/02 03:53:13;;;;;;;7.28;6.43;;;;;;;8.91;100.00;100106.03;8375259;28;20029;-59
2023/04/02 03:57:30;;;;;;;7.85;5.82;;;;;;;8.91;100.00;100114.94;8391497;28;20403;-60
2023/04/02 04:01:40;;;;;;;6.43;5.38;;;;;;;8.84;100.00;100118.38;8358809;28;20037;-59
2023/04/02 04:05:52;;;;;;;6.10;4.93;;;;;;;8.84;100.00;100142.63;8356924;28;20086;-60
2023/04/02 04:09:58;;;;;;;5.80;4.78;;;;;;;8.83;100.00;100138.22;8381523;28;20116;-59
2023/04/02 04:14:08;;;;;;;5.15;4.65;;;;;;;8.80;100.00;100151.97;8357884;28;20491;-60
2023/04/02 04:22:42;;;;;;;5.47;4.68;;;;;;;8.75;100.00;100165.84;8419746;27;20126;-58
2023/04/02 04:27:08;;;;;;;7.10;4.90;;;;;;;8.77;100.00;100181.88;8385289;28;20112;-57
2023/04/02 04:31:21;;;;;;;4.90;4.40;;;;;;;8.65;100.00;100193.75;8384192;28;20041;-58
2023/04/02 04:35:30;;;;;;;7.68;4.95;;;;;;;8.62;100.00;100202.97;8376303;28;20438;-57
2023/04/02 04:39:44;;;;;;;6.13;4.38;;;;;;;8.64;100.00;100216.31;8385662;28;20037;-57
2023/04/02 04:44:06;;;;;;;;;;;;;;;8.56;100.00;100224.22;8385529;28;20036;-58
2023/04/02 04:48:16;;;;;;;9.15;6.95;;;;;;;8.50;100.00;100228.31;8379084;28;20318;-58
2023/04/02 04:52:26;;;;;;;9.07;6.93;;;;;;;8.47;100.00;100238.47;8398976;28;20067;-58
2023/04/02 04:56:29;;;;;;;9.48;7.60;;;;;;;8.41;100.00;100249.78;8369574;28;20048;-60
2023/04/02 05:00:49;;;;;;;9.73;7.13;;;;;;;8.34;100.00;100251.31;8368344;28;20074;-59
2023/04/02 05:04:51;;;;;;;9.27;7.72;;;;;;;8.33;100.00;100265.78;8362635;28;20090;-58
2023/04/02 05:08:58;;;;;;;11.13;8.60;;;;;;;8.37;100.00;100272.59;8367282;28;20575;-59
2023/04/02 05:13:39;;;;;;;9.63;7.78;;;;;;;8.29;100.00;100285.88;8366722;28;20421;-59
2023/04/02 05:17:50;;;;;;;8.35;7.55;;;;;;;8.19;100.00;100295.69;8366447;28;20060;-59
2023/04/02 05:22:01;;;;;;;9.63;6.97;;;;;;;8.25;100.00;100308.66;8374950;28;20045;-59
2023/04/02 05:26:17;;;;;;;9.00;7.25;;;;;;;8.29;100.00;100313.66;8384022;28;20120;-59
2023/04/02 05:34:36;;;;;;;10.55;7.82;;;;;;;8.21;100.00;100328.72;8394455;27;20815;-57
2023/04/02 05:38:43;;;;;;;12.65;9.25;;;;;;;8.15;100.00;100345.41;8392266;27;20453;-54
2023/04/02 05:42:48;;;;;;;13.18;10.02;;;;;;;8.07;100.00;100348.75;8409946;27;20056;-53
2023/04/02 05:46:55;;;;;;;11.10;9.30;;;;;;;8.06;100.00;100364.03;8393773;27;20036;-55
2023/04/02 05:50:59;;;;;;;14.90;10.60;;;;;;;8.04;100.00;100371.41;8398174;28;20048;-54
2023/04/02 05:59:30;;;;;;;14.43;9.82;;;;;;;8.01;100.00;100386.94;8355332;27;20471;-55
2023/04/02 06:03:48;;;;;;;11.63;9.50;;;;;;;7.97;100.00;100397.09;8346090;28;20041;-54
2023/04/02 06:08:13;;;;;;;14.00;9.00;;;;;;;7.96;100.00;100411.56;8344914;28;20037;-55
2023/04/02 06:12:30;;;;;;;11.30;8.30;;;;;;;7.97;100.00;100413.25;8351260;28;20243;-54
2023/04/02 06:16:35;;;;;;;11.35;8.63;;;;;;;7.99;100.00;100414.00;8338375;28;20090;-54
2023/04/02 06:20:36;;;;;;;11.80;8.47;;;;;;;7.92;100.00;100431.63;8333347;28;20491;-54
2023/04/02 06:24:39;;;;;;;10.05;8.32;;;;;;;7.97;100.00;100442.84;8331593;28;20447;-54
2023/04/02 06:28:51;;;;;;;12.88;8.57;;;;;;;7.92;100.00;100455.84;8319551;28;20522;-54
2023/04/02 06:32:54;;;;;;;14.18;9.10;;;;;;;7.90;100.00;100467.75;8321402;28;20116;-54
2023/04/02 06:36:59;;;;;;;12.07;8.93;;;;;;;7.88;100.00;100469.69;8332127;28;20495;-54
2023/04/02 06:41:11;;;;;;;12.38;9.80;;;;;;;7.89;100.00;100485.72;8344257;28;20041;-54
2023/04/02 06:45:24;;;;;;;17.20;10.63;;;;;;;7.82;100.00;100489.91;8334721;28;20030;-54
2023/04/02 06:49:49;;;;;;;14.95;10.48;;;;;;;7.81;100.00;100508.84;8341744;28;20034;-53
2023/04/02 06:53:50;;;;;;;16.05;11.02;;;;;;;7.70;100.00;100519.59;8352134;28;20526;-54
2023/04/02 06:57:53;;;;;;;15.43;10.90;;;;;;;7.63;100.00;100523.78;8348530;28;20136;-54
2023/04/02 07:01:57;;;;;;;16.20;12.52;;;;;;;7.63;100.00;100537.22;8343193;28;20512;-56
2023/04/02 07:06:01;;;;;;;21.02;13.27;;;;;;;7.66;100.00;100537.81;8332224;28;20037;-54
2023/04/02 07:10:02;;;;;;;17.15;11.90;;;;;;;7.69;100.00;100547.50;8330871;28;20091;-55
2023/04/02 07:14:03;;;;;;;20.55;13.32;;;;;;;7.62;100.00;100563.25;8327231;28;20116;-54
2023/04/02 07:18:05;;;;;;;21.35;13.48;;;;;;;7.62;100.00;100574.03;8310930;28;20037;-54
2023/04/02 07:22:05;;;;;;;22.55;13.13;;;;;;;7.61;100.00;100582.22;8315991;28;20128;-54
2023/04/02 07:26:14;;;;;;;20.33;12.05;;;;;;;7.64;100.00;100598.97;8298567;28;20041;-54
2023/04/02 07:30:15;;;;;;;15.82;9.93;;;;;;;7.58;100.00;100610.22;8295246;28;20041;-54
2023/04/02 07:34:15;;;;;;;16.35;9.93;;;;;;;7.54;100.00;100624.88;8307061;28;20042;-54
2023/04/02 07:38:16;;;;;;;15.35;10.02;;;;;;;7.47;100.00;100631.69;8309462;28;20479;-54
2023/04/02 07:42:16;;;;;;;16.40;9.10;;;;;;;7.54;100.00;100637.47;8325802;28;20049;-54
2023/04/02 07:46:19;;;;;;;15.73;9.82;;;;;;;7.48;100.00;100641.47;8314509;28;20045;-54
2023/04/02 07:50:19;;;;;;;15.40;10.02;;;;;;;7.49;100.00;100645.03;8308048;28;20085;-55
2023/04/02 07:54:19;;;;;;;15.75;9.25;;;;;;;7.52;100.00;100659.13;8318317;28;20033;-55
2023/04/02 07:58:20;;;;;;;16.73;8.60;;;;;;;7.55;100.00;100664.25;8323048;28;20064;-55
2023/04/02 08:02:22;;;;;;;15.43;9.45;;;;;;;7.45;100.00;100683.91;8292391;28;20068;-54
2023/04/02 08:06:23;;;;;;;15.25;8.95;;;;;;;7.45;99.57;100673.16;8312403;28;20061;-54
2023/04/02 08:10:24;;;;;;;13.52;8.38;;;;;;;7.50;99.16;100687.09;8311252;28;20111;-55
2023/04/02 08:14:25;;;;;;;13.57;7.13;;;;;;;7.50;98.68;100698.72;8299645;28;20040;-55
2023/04/02 08:18:25;;;;;;;16.30;7.78;;;;;;;7.53;98.47;100709.25;8307262;28;20447;-53
2023/04/02 08:22:27;;;;;;;16.20;8.27;;;;;;;7.48;99.53;100722.16;8320815;28;20042;-54
2023/04/02 08:26:28;;;;;;;14.25;9.32;;;;;;;7.54;100.00;100732.47;8325713;28;20049;-53
2023/04/02 08:30:28;;;;;;;20.60;9.07;;;;;;;7.51;100.00;100748.00;8301103;28;20129;-54
2023/04/02 08:34:29;;;;;;;16.30;9.20;;;;;;;7.48;100.00;100749.06;8317442;28;20144;-54
2023/04/02 08:38:30;;;;;;;18.38;9.00;;;;;;;7.52;100.00;100755.09;8316844;28;20037;-54
2023/04/02 08:43:00;;;;;;;20.27;9.25;;;;;;;7.49;100.00;100760.69;8318361;28;20049;-54
2023/04/02 08:47:06;;;;;;;18.73;9.00;;;;;;;7.47;100.00;100776.09;8289229;28;20092;-53
2023/04/02 08:51:15;;;;;;;15.88;9.27;;;;;;;7.47;100.00;100774.25;8285978;28;20113;-52
2023/04/02 08:55:41;;;;;;;17.58;8.90;;;;;;;7.54;98.97;100780.88;8284652;28;20057;-53
2023/04/02 08:59:44;;;;;;;17.00;9.90;;;;;;;7.57;98.19;100786.03;8298063;28;20045;-55
2023/04/02 09:03:46;;;;;;;20.85;9.55;;;;;;;7.69;97.78;100795.06;8287116;28;20053;-55
2023/04/02 09:07:49;;;;;;;17.20;10.45;;;;;;;7.73;97.01;100797.41;8315786;28;20037;-55
2023/04/02 09:11:59;;;;;;;19.08;9.85;;;;;;;7.75;96.46;100811.56;8287090;28;20113;-55
2023/04/02 09:20:25;;;;;;;19.20;9.60;;;;;;;7.91;94.54;100831.00;8406322;27;20415;-53
2023/04/02 09:24:25;;;;;;;16.75;8.90;;;;;;;7.87;93.86;100837.56;8365040;28;20047;-54
2023/04/02 09:28:25;;;;;;;14.93;8.48;;;;;;;7.83;94.03;100846.84;8363117;28;20124;-55
2023/04/02 09:32:39;;;;;;;16.85;8.82;;;;;;;7.78;92.90;100859.78;8350167;28;20048;-55
2023/04/02 09:36:39;;;;;;;15.30;8.37;;;;;;;7.71;92.46;100863.03;8372929;28;20094;-54
2023/04/02 09:40:57;;;;;;;14.85;8.35;;;;;;;7.71;92.43;100874.69;8377429;28;20574;-55
2023/04/02 09:45:22;;;;;;;16.23;8.43;;;;;;;7.84;94.01;100880.84;8369441;28;20049;-53
2023/04/02 09:49:32;;;;;;;14.10;8.85;;;;;;;8.04;93.35;100890.13;8366028;28;20445;-55
2023/04/02 09:53:35;;;;;;;13.30;7.53;;;;;;;8.11;92.96;100893.25;8364113;28;20217;-55
2023/04/02 09:57:37;;;;;;;18.07;8.23;;;;;;;8.24;91.84;100904.81;8377058;28;20143;-55
2023/04/02 10:01:39;;;;;;;14.15;7.65;;;;;;;8.16;89.93;100907.19;8377165;28;20059;-59
2023/04/02 10:05:41;;;;;;;15.98;9.15;;;;;;;8.15;91.33;100916.25;8368443;28;20040;-60
2023/04/02 10:09:42;;;;;;;18.42;8.73;;;;;;;8.11;91.68;100920.16;8369168;28;20045;-59
2023/04/02 10:14:04;;;;;;;13.10;7.60;;;;;;;8.08;91.67;100937.38;8372625;28;20047;-55
2023/04/02 10:18:22;;;;;;;19.83;8.40;;;;;;;8.11;91.58;100952.47;8382728;27;20040;-56
2023/04/02 10:22:22;;;;;;;14.00;7.57;;;;;;;8.14;91.20;100957.63;8382870;28;20093;-55
2023/04/02 10:26:34;;;;;;;11.45;7.15;;;;;;;8.28;89.95;100952.97;8376147;28;20041;-55
2023/04/02 10:31:01;;;;;;;12.60;7.68;;;;;;;8.36;88.93;100953.25;8360229;28;20063;-55
2023/04/02 10:35:14;;;;;;;15.00;7.68;;;;;;;8.51;88.64;100962.84;8353814;28;20033;-55
2023/04/02 10:39:22;;;;;;;10.23;7.60;;;;;;;8.60;88.00;100966.69;8352510;28;20041;-55
2023/04/02 10:47:44;;;;;;;12.35;7.53;;;;;;;8.52;87.70;100985.25;8394251;27;20390;-53
2023/04/02 10:51:59;;;;;;;16.63;8.73;;;;;;;8.49;87.99;100996.28;8374200;28;20115;-53
2023/04/02 10:56:04;;;;;;;56.22;8.43;;;;;;;8.63;87.70;101004.19;8343800;28;20041;-53
2023/04/02 11:04:31;;;;;;;10.45;6.88;;;;;;;8.55;87.11;101018.25;8340313;27;20958;-57
2023/04/02 11:08:41;;;;;;;10.32;6.35;;;;;;;8.63;86.27;101021.19;8299931;28;20036;-57
2023/04/02 11:12:50;;;;;;;11.65;7.00;;;;;;;8.87;85.96;101021.16;8311606;28;20092;-57
2023/04/02 11:16:52;;;;;;;10.48;6.18;;;;;;;8.92;86.01;101037.84;8342649;28;20112;-52
2023/04/02 11:20:59;;;;;;;12.48;6.78;;;;;;;9.01;85.20;101043.41;8311805;28;20072;-53
2023/04/02 11:25:00;;;;;;;10.80;6.50;;;;;;;8.84;84.41;101040.28;8311585;28;20042;-53
2023/04/02 11:29:12;;;;;;;15.85;7.03;;;;;;;8.82;84.66;101050.31;8311995;28;20466;-53
2023/04/02 11:37:45;;;;;;;8.48;6.53;;;;;;;9.01;85.67;101053.34;8341932;27;20410;-55
2023/04/02 11:47:26;;;;;;;8.90;6.30;;;;;;;9.09;83.47;101069.78;8264176;28;20565;-54
2023/04/02 11:51:48;;;;;;;9.55;6.10;;;;;;;9.45;82.72;101069.63;8350557;28;20500;-53
2023/04/02 12:05:13;;;;;;;11.07;6.43;;;;;;;9.49;81.27;101092.72;8389113;27;20363;-52
2023/04/02 12:09:43;;;;;;;10.65;6.82;;;;;;;9.66;81.36;101086.84;8365740;27;20060;-53
2023/04/02 12:13:49;;;;;;;7.75;6.07;;;;;;;9.84;80.99;101096.19;8377125;28;20041;-52
2023/04/02 12:17:49;;;;;;;7.93;5.20;;;;;;;10.01;78.82;101101.09;8356545;28;20033;-53
2023/04/02 12:21:52;;;;;;;7.50;5.28;;;;;;;9.85;79.22;101106.00;8352178;28;20033;-55
2023/04/02 12:26:02;;;;;;;7.07;4.88;;;;;;;9.82;80.44;101117.03;8376736;28;20294;-53
2023/04/02 12:30:13;;;;;;;9.40;5.97;;;;;;;9.89;78.85;101123.69;8380056;28;20044;-53
2023/04/02 12:34:16;;;;;;;10.05;5.63;;;;;;;9.75;79.29;101113.97;8379674;28;20032;-53
2023/04/02 12:38:21;;;;;;;10.30;6.10;;;;;;;9.87;79.76;101126.50;8380269;28;20029;-54
2023/04/02 12:42:32;;;;;;;8.10;5.22;;;;;;;9.85;80.04;101122.19;8318628;28;20042;-53
2023/04/02 12:46:34;;;;;;;6.07;5.18;;;;;;;9.92;78.88;101132.38;8330071;28;20513;-53
2023/04/02 12:50:35;;;;;;;8.30;6.05;;;;;;;9.88;79.44;101143.56;8365374;28;20037;-53
2023/04/02 12:54:44;;;;;;;7.57;5.57;;;;;;;9.92;78.54;101142.34;8362728;28;20519;-57
2023/04/02 12:58:52;;;;;;;8.20;5.78;;;;;;;9.91;79.68;101135.22;8364557;28;20033;-59
2023/04/02 13:03:16;;;;;;;10.05;5.40;;;;;;;9.67;79.58;101156.06;8363120;28;20045;-59
2023/04/02 13:07:18;;;;;;;;;;;;;;;9.87;79.66;101158.94;8364371;28;20127;-54
2023/04/02 13:11:21;;;;;;;9.25;5.47;;;;;;;9.75;78.64;101165.28;8353616;28;20074;-57
2023/04/02 13:15:26;;;;;;;7.85;6.00;;;;;;;9.58;79.46;101160.31;8345477;28;20407;-54
2023/04/02 13:19:30;;;;;;;14.25;6.03;;;;;;;9.63;79.68;101165.38;8341666;28;20507;-55
2023/04/02 13:27:43;;;;;;;9.23;5.50;;;;;;;9.38;79.13;101170.94;8484090;27;20165;-53
2023/04/02 13:31:44;;;;;;;10.32;5.22;;;;;;;9.33;79.92;101184.78;8465075;27;20115;-53
2023/04/02 13:35:45;;;;;;;9.00;5.80;;;;;;;9.29;79.26;101177.91;8463807;27;20024;-54
2023/04/02 13:39:46;;;;;;;9.65;5.32;;;;;;;9.30;79.06;101173.38;8483005;27;20027;-55
2023/04/02 13:43:48;;;;;;;8.27;5.43;;;;;;;9.38;79.23;101187.13;8464029;27;20438;-52
2023/04/02 13:47:49;;;;;;;10.38;4.93;;;;;;;9.67;78.31;101174.97;8481790;27;20491;-54
2023/04/02 13:51:53;;;;;;;8.25;4.55;;;;;;;9.60;78.00;101187.19;8481823;27;20035;-55
2023/04/02 13:55:54;;;;;;;7.63;4.97;;;;;;;9.47;78.25;101192.69;8481316;27;20104;-54
2023/04/02 13:59:55;;;;;;;11.43;5.72;;;;;;;9.38;78.58;101208.72;8469544;27;20125;-54
2023/04/02 14:03:56;;;;;;;6.03;4.40;;;;;;;9.37;79.59;101223.19;8481508;27;20439;-54
2023/04/02 14:13:08;;;;;;;5.57;4.60;;;;;;;9.35;79.26;101231.41;8315778;28;20401;-56
2023/04/02 14:17:21;;;;;;;8.20;5.30;;;;;;;9.38;79.25;101233.00;8315866;28;23068;-55
2023/04/02 14:21:37;;;;;;;5.97;4.17;;;;;;;9.45;79.27;101231.53;8316240;28;20042;-53
2023/04/02 14:25:50;;;;;;;7.50;4.50;;;;;;;9.43;78.99;101241.63;8316078;28;20384;-54
2023/04/02 14:30:20;;;;;;;6.68;4.18;;;;;;;9.48;78.26;101247.50;8316226;28;20037;-54
2023/04/02 14:34:46;;;;;;;8.77;3.85;;;;;;;9.46;78.39;101250.31;8304402;28;20041;-59
2023/04/02 14:39:16;;;;;;;5.82;3.38;;;;;;;9.40;77.08;101266.13;8300563;28;20053;-61
2023/04/02 14:43:30;;;;;;;6.95;3.90;;;;;;;9.24;77.27;101277.19;8308920;28;20037;-59
2023/04/02 14:47:43;;;;;;;5.45;3.33;;;;;;;9.25;77.60;101272.69;8296681;28;20041;-59
2023/04/02 14:51:49;;;;;;;5.50;3.65;;;;;;;9.14;76.39;101281.56;8296706;28;20038;-59
2023/04/02 14:55:51;;;;;;;6.20;3.50;;;;;;;9.11;77.29;101287.19;8297276;28;20103;-59
2023/04/02 15:00:01;;;;;;;10.15;3.90;;;;;;;9.04;77.59;101295.81;8304675;28;20415;-59
2023/04/02 15:04:21;;;;;;;4.97;3.30;;;;;;;9.05;78.06;101294.84;8292751;28;20078;-59
2023/04/02 15:08:29;;;;;;;7.13;3.60;;;;;;;9.06;77.47;101301.97;8294869;28;20092;-59
2023/04/02 15:12:34;;;;;;;4.93;3.28;;;;;;;9.02;76.35;101297.75;8292894;28;20540;-59
2023/04/02 15:16:35;;;;;;;6.38;3.28;;;;;;;8.95;76.46;101296.50;8279333;28;20275;-59
2023/04/02 15:20:48;;;;;;;6.38;3.53;;;;;;;8.86;77.37;101303.44;8288817;28;20038;-59
2023/04/02 15:25:18;;;;;;;5.30;3.17;;;;;;;8.81;76.49;101308.28;8271543;28;20125;-58
2023/04/02 15:29:43;;;;;;;6.53;3.30;;;;;;;8.78;76.27;101319.28;8260101;28;20499;-58
2023/04/02 15:34:09;;;;;;;4.75;3.50;;;;;;;8.69;76.48;101316.41;8276606;28;20042;-59
2023/04/02 15:38:35;;;;;;;5.60;3.53;;;;;;;8.70;75.82;101326.19;8271807;28;20530;-59
2023/04/02 15:42:40;;;;;;;4.25;3.10;;;;;;;8.69;74.35;101335.25;8280427;28;20394;-59
2023/04/02 15:47:15;;;;;;;4.95;3.42;;;;;;;8.77;74.48;101349.03;8287050;28;20061;-60
2023/04/02 15:51:39;;;;;;;8.70;3.40;;;;;;;8.75;75.01;101356.41;8287171;28;20042;-60
2023/04/02 15:55:48;;;;;;;5.72;3.67;;;;;;;8.77;75.53;101366.09;8285914;28;20125;-59
2023/04/02 16:04:41;;;;;;;7.43;4.50;;;;;;;8.60;75.24;101371.78;8376326;27;21068;-60
2023/04/02 16:09:10;;;;;;;6.43;4.88;;;;;;;8.59;75.85;101382.69;8365332;28;20114;-60
2023/04/02 16:13:31;;;;;;;8.30;4.68;;;;;;;8.47;75.26;101391.63;8343063;28;20508;-58
2023/04/02 16:17:38;;;;;;;6.50;4.15;;;;;;;8.52;74.64;101393.03;8345847;28;20033;-58
2023/04/02 16:21:47;;;;;;;6.93;3.85;;;;;;;8.54;74.56;101392.94;8340448;28;20048;-60
2023/04/02 16:30:22;;;;;;;8.95;4.10;;;;;;;8.50;73.20;101418.34;8314692;28;20997;-55
2023/04/02 16:34:49;;;;;;;7.22;4.18;;;;;;;8.44;73.26;101421.47;8315620;28;20182;-55
2023/04/02 16:39:29;;;;;;;4.32;3.90;;;;;;;8.53;73.34;101423.53;8309331;28;20050;-56
2023/04/02 16:48:14;;;;;;;7.55;4.60;;;;;;;8.58;72.55;101430.34;8407825;27;20368;-55
2023/04/02 16:52:32;;;;;;;6.53;4.05;;;;;;;8.55;71.92;101438.66;8383320;27;20045;-55
2023/04/02 16:56:48;;;;;;;4.85;4.00;;;;;;;8.50;71.94;101446.19;8363854;28;20045;-55
2023/04/02 17:01:14;;;;;;;5.75;4.70;;;;;;;8.44;71.59;101459.19;8382868;28;20123;-57
2023/04/02 17:05:35;;;;;;;7.85;5.07;;;;;;;8.48;71.49;101463.44;8363552;28;20117;-55
2023/04/02 17:09:47;;;;;;;5.28;4.57;;;;;;;8.52;70.88;101473.03;8361872;28;20052;-55
2023/04/02 17:14:04;;;;;;;5.93;4.65;;;;;;;8.51;70.13;101471.31;8362866;28;20492;-55
2023/04/02 17:18:23;;;;;;;7.28;4.75;;;;;;;8.50;70.44;101483.03;8375936;27;20362;-55
2023/04/02 17:22:24;;;;;;;6.95;5.15;;;;;;;8.53;70.42;101496.28;8379359;27;20076;-56
2023/04/02 17:26:28;;;;;;;6.38;4.70;;;;;;;8.47;70.06;101488.63;8346766;28;20037;-55
2023/04/02 17:30:48;;;;;;;7.03;4.75;;;;;;;8.47;69.64;101489.50;8329672;28;20049;-55
2023/04/02 17:34:48;;;;;;;6.25;5.07;;;;;;;8.49;69.93;101503.75;8388480;28;20554;-55
2023/04/02 17:43:11;;;;;;;9.15;5.03;;;;;;;8.44;70.00;101510.38;8320677;27;20401;-55
2023/04/02 17:47:43;;;;;;;6.28;4.28;;;;;;;8.39;70.34;101523.31;8333156;28;20088;-54
2023/04/02 17:52:08;;;;;;;8.77;4.45;;;;;;;8.34;70.06;101520.06;8339436;28;20112;-54
2023/04/02 17:56:26;;;;;;;8.10;3.90;;;;;;;8.34;69.93;101525.44;8346310;28;20049;-59
2023/04/02 18:00:45;;;;;;;4.13;3.58;;;;;;;8.28;69.96;101525.84;8343110;28;20045;-60
2023/04/02 18:09:30;;;;;;;6.78;3.63;;;;;;;8.25;70.48;101547.59;8342111;27;20392;-60
2023/04/02 18:13:38;;;;;;;5.20;3.35;;;;;;;8.22;70.35;101555.84;8303199;28;20057;-60
2023/04/02 18:17:47;;;;;;;4.55;3.38;;;;;;;8.16;70.40;101554.44;8311765;28;20112;-60
2023/04/02 18:22:13;;;;;;;9.95;3.70;;;;;;;8.15;70.66;101570.69;8312544;28;20040;-60
2023/04/02 18:26:29;;;;;;;5.50;3.75;;;;;;;8.06;71.34;101575.69;8304099;28;20086;-60
2023/04/02 18:30:39;;;;;;;9.73;3.83;;;;;;;8.02;71.74;101579.56;8298750;28;20112;-60
2023/04/02 18:39:13;;;;;;;7.75;3.40;;;;;;;7.93;71.69;101590.06;8349821;28;20426;-52
2023/04/02 18:43:34;;;;;;;4.85;3.30;;;;;;;7.99;72.22;101601.31;8355016;28;20434;-54
2023/04/02 18:47:50;;;;;;;5.88;3.65;;;;;;;7.99;71.82;101606.69;8355137;28;20040;-54
2023/04/02 18:51:56;;;;;;;7.13;3.33;;;;;;;7.98;71.89;101602.28;8381811;28;20407;-55
2023/04/02 18:56:02;;;;;;;4.93;3.83;;;;;;;7.95;72.41;101624.00;8381058;28;20041;-53
2023/04/02 19:04:24;;;;;;;7.93;3.70;;;;;;;7.90;72.33;101634.19;8344870;27;20468;-54
2023/04/02 19:08:39;;;;;;;5.40;3.55;;;;;;;7.90;71.89;101639.56;8333142;28;20060;-55
2023/04/02 19:12:39;;;;;;;5.30;3.08;;;;;;;7.80;72.20;101643.81;8330488;28;20037;-54
2023/04/02 19:17:04;;;;;;;7.18;3.22;;;;;;;7.69;72.93;101650.84;8350814;28;20045;-54
2023/04/02 19:21:34;;;;;;;5.75;3.00;;;;;;;7.78;70.95;101656.50;8377764;28;20037;-54
2023/04/02 19:34:33;;;;;;;4.32;2.97;;;;;;;7.75;69.49;101669.28;8417518;27;20362;-57
2023/04/02 19:42:54;;;;;;;5.15;2.83;;;;;;;7.84;69.27;101674.97;8398354;27;20397;-58
2023/04/02 19:46:55;;;;;;;8.38;3.28;;;;;;;7.84;69.39;101677.66;8399967;28;20033;-57
2023/04/02 19:50:55;;;;;;;7.25;2.95;;;;;;;7.81;69.88;101672.47;8367717;28;20120;-58
2023/04/02 19:54:56;;;;;;;4.05;3.20;;;;;;;7.83;69.52;101680.44;8386176;27;20380;-58
2023/04/02 19:58:56;;;;;;;4.70;2.75;;;;;;;7.83;69.75;101681.31;8399684;27;20037;-58
2023/04/02 20:02:57;;;;;;;5.47;3.45;;;;;;;7.86;69.25;101691.00;8400053;27;20045;-60
2023/04/02 20:06:57;;;;;;;4.25;3.30;;;;;;;7.85;69.61;101695.56;8395628;28;20040;-59
2023/04/02 20:10:58;;;;;;;5.93;3.33;;;;;;;7.84;69.45;101703.72;8379031;28;20064;-60
2023/04/02 20:14:59;;;;;;;7.45;3.40;;;;;;;7.86;69.91;101705.34;8376202;28;20044;-57
2023/04/02 20:18:59;;;;;;;8.30;3.15;;;;;;;7.86;69.62;101716.13;8382898;28;20055;-58
2023/04/02 20:23:00;;;;;;;6.57;3.25;;;;;;;7.81;69.83;101707.44;8382398;28;20132;-59
2023/04/02 20:27:01;;;;;;;8.02;3.22;;;;;;;7.79;69.48;101714.78;8378643;28;20136;-55
2023/04/02 20:31:12;;;;;;;7.32;3.22;;;;;;;7.66;70.98;101721.84;8377896;28;20043;-55
2023/04/02 20:35:12;;;;;;;4.55;3.05;;;;;;;7.67;70.58;101726.28;8379119;28;20056;-55
2023/04/02 20:39:18;;;;;;;6.25;2.88;;;;;;;7.66;71.22;101738.00;8378156;28;20059;-53
2023/04/02 20:43:18;;;;;;;3.10;2.80;;;;;;;7.63;71.30;101738.16;8375452;28;20037;-55
2023/04/02 20:47:18;;;;;;;5.15;3.80;;;;;;;7.68;71.69;101743.28;8358087;28;20044;-58
2023/04/02 20:51:20;;;;;;;7.50;3.50;;;;;;;7.63;72.64;101743.56;8372916;28;20491;-56
2023/04/02 20:55:21;;;;;;;7.07;3.42;;;;;;;7.62;72.11;101749.91;8378689;28;20494;-56
2023/04/02 20:59:21;;;;;;;6.93;3.95;;;;;;;7.61;73.70;101756.25;8388263;28;20406;-54
2023/04/02 21:03:21;;;;;;;3.88;2.78;;;;;;;7.51;70.35;101749.66;8389421;28;20049;-54
2023/04/02 21:07:22;;;;;;;6.82;2.55;;;;;;;7.20;72.58;101760.50;8388951;28;20032;-53
2023/04/02 21:11:23;;;;;;;3.55;2.30;;;;;;;7.16;70.67;101764.34;8354899;28;20400;-53